sensor_id;sensor_type;location;lat;lon;timestamp;pressure;altitude;pressure_sealevel;temperature;humidity
75886;BME280;64561;44.018;10.144;2022-12-29T00:00:20;102288.66;;;13.25;77.87
75886;BME280;64561;44.018;10.144;2022-12-29T00:02:47;102286.63;;;13.41;77.46
75886;BME280;64561;44.018;10.144;2022-12-29T00:05:14;102290.69;;;13.34;77.54
75886;BME280;64561;44.018;10.144;2022-12-29T00:07:41;102296.78;;;13.36;77.97
75886;BME280;64561;44.018;10.144;2022-12-29T00:10:08;102301.19;;;13.40;78.43
75886;BME280;64561;44.018;10.144;2022-12-29T00:12:35;102303.63;;;13.36;79.58
75886;BME280;64561;44.018;10.144;2022-12-29T00:15:20;102307.59;;;13.27;80.47
75886;BME280;64561;44.018;10.144;2022-12-29T00:18:07;102303.00;;;13.20;81.24
75886;BME280;64561;44.018;10.144;2022-12-29T00:20:36;102298.63;;;13.18;81.70
75886;BME280;64561;44.018;10.144;2022-12-29T00:23:22;102295.13;;;13.16;81.89
75886;BME280;64561;44.018;10.144;2022-12-29T00:26:13;102295.13;;;13.16;82.75
75886;BME280;64561;44.018;10.144;2022-12-29T00:29:00;102298.69;;;13.19;83.24
75886;BME280;64561;44.018;10.144;2022-12-29T00:31:47;102297.97;;;12.78;85.74
75886;BME280;64561;44.018;10.144;2022-12-29T00:34:33;102296.00;;;12.71;86.15
75886;BME280;64561;44.018;10.144;2022-12-29T00:37:19;102286.19;;;12.61;87.43
75886;BME280;64561;44.018;10.144;2022-12-29T00:40:06;102280.47;;;12.68;87.19
75886;BME280;64561;44.018;10.144;2022-12-29T00:42:52;102278.72;;;12.67;87.55
75886;BME280;64561;44.018;10.144;2022-12-29T00:45:43;102269.50;;;12.72;88.50
75886;BME280;64561;44.018;10.144;2022-12-29T00:48:10;102267.88;;;12.52;89.35
75886;BME280;64561;44.018;10.144;2022-12-29T00:50:41;102259.56;;;12.37;90.15
75886;BME280;64561;44.018;10.144;2022-12-29T00:53:08;102245.31;;;12.45;90.38
75886;BME280;64561;44.018;10.144;2022-12-29T00:55:38;102266.00;;;12.70;89.58
75886;BME280;64561;44.018;10.144;2022-12-29T00:58:07;102263.91;;;12.82;88.69
75886;BME280;64561;44.018;10.144;2022-12-29T01:00:33;102276.34;;;12.94;88.83
75886;BME280;64561;44.018;10.144;2022-12-29T01:03:01;102273.94;;;12.99;88.24
75886;BME280;64561;44.018;10.144;2022-12-29T01:05:28;102273.81;;;12.96;88.28
75886;BME280;64561;44.018;10.144;2022-12-29T01:07:57;102275.59;;;12.97;88.54
75886;BME280;64561;44.018;10.144;2022-12-29T01:10:23;102282.47;;;12.98;88.55
75886;BME280;64561;44.018;10.144;2022-12-29T01:12:51;102276.47;;;12.97;88.49
75886;BME280;64561;44.018;10.144;2022-12-29T01:15:19;102279.28;;;13.05;88.13
75886;BME280;64561;44.018;10.144;2022-12-29T01:17:47;102264.81;;;13.07;88.03
75886;BME280;64561;44.018;10.144;2022-12-29T01:20:14;102269.34;;;13.14;87.94
75886;BME280;64561;44.018;10.144;2022-12-29T01:22:41;102253.78;;;13.10;87.82
75886;BME280;64561;44.018;10.144;2022-12-29T01:25:13;102260.19;;;13.21;87.76
75886;BME280;64561;44.018;10.144;2022-12-29T01:27:40;102249.25;;;13.26;87.65
75886;BME280;64561;44.018;10.144;2022-12-29T01:30:08;102265.63;;;13.29;87.60
75886;BME280;64561;44.018;10.144;2022-12-29T01:32:35;102275.66;;;13.45;87.34
75886;BME280;64561;44.018;10.144;2022-12-29T01:35:03;102276.41;;;13.42;87.58
75886;BME280;64561;44.018;10.144;2022-12-29T01:37:33;102282.38;;;13.41;87.43
75886;BME280;64561;44.018;10.144;2022-12-29T01:40:01;102273.75;;;13.39;87.67
75886;BME280;64561;44.018;10.144;2022-12-29T01:42:30;102257.47;;;13.40;87.59
75886;BME280;64561;44.018;10.144;2022-12-29T01:45:00;102257.47;;;13.40;87.25
75886;BME280;64561;44.018;10.144;2022-12-29T01:47:38;102257.59;;;13.43;87.14
75886;BME280;64561;44.018;10.144;2022-12-29T01:50:52;102256.81;;;13.46;87.41
75886;BME280;64561;44.018;10.144;2022-12-29T01:53:17;102249.00;;;13.43;87.65
75886;BME280;64561;44.018;10.144;2022-12-29T01:55:50;102243.78;;;13.41;87.49
75886;BME280;64561;44.018;10.144;2022-12-29T01:58:21;102240.41;;;13.42;87.51
75886;BME280;64561;44.018;10.144;2022-12-29T02:00:49;102227.50;;;13.41;87.61
75886;BME280;64561;44.018;10.144;2022-12-29T02:03:17;102230.28;;;13.47;87.38
75886;BME280;64561;44.018;10.144;2022-12-29T02:05:52;102229.47;;;13.48;87.36
75886;BME280;64561;44.018;10.144;2022-12-29T02:08:24;102222.56;;;13.47;87.61
75886;BME280;64561;44.018;10.144;2022-12-29T02:10:54;102223.28;;;13.43;87.66
75886;BME280;64561;44.018;10.144;2022-12-29T02:13:26;102241.09;;;13.62;87.63
75886;BME280;64561;44.018;10.144;2022-12-29T02:19:25;102248.00;;;13.63;87.79
75886;BME280;64561;44.018;10.144;2022-12-29T02:24:44;102254.91;;;13.40;88.60
75886;BME280;64561;44.018;10.144;2022-12-29T02:30:15;102255.41;;;13.30;89.00
75886;BME280;64561;44.018;10.144;2022-12-29T02:36:12;102242.50;;;13.29;88.93
75886;BME280;64561;44.018;10.144;2022-12-29T02:44:26;102230.69;;;13.34;89.41
75886;BME280;64561;44.018;10.144;2022-12-29T02:47:05;102245.28;;;13.35;89.48
75886;BME280;64561;44.018;10.144;2022-12-29T02:49:46;102236.25;;;13.23;89.99
75886;BME280;64561;44.018;10.144;2022-12-29T02:52:18;102229.88;;;13.12;90.50
75886;BME280;64561;44.018;10.144;2022-12-29T02:54:49;102239.13;;;13.07;90.94
75886;BME280;64561;44.018;10.144;2022-12-29T03:00:15;102239.44;;;12.92;92.16
75886;BME280;64561;44.018;10.144;2022-12-29T03:02:59;102242.63;;;12.87;92.49
75886;BME280;64561;44.018;10.144;2022-12-29T03:13:52;102255.91;;;12.97;91.91
75886;BME280;64561;44.018;10.144;2022-12-29T03:17:12;102257.81;;;13.03;91.86
75886;BME280;64561;44.018;10.144;2022-12-29T03:19:47;102261.53;;;13.11;91.56
75886;BME280;64561;44.018;10.144;2022-12-29T03:22:22;102258.16;;;13.12;91.44
75886;BME280;64561;44.018;10.144;2022-12-29T03:25:11;102257.28;;;13.12;91.15
75886;BME280;64561;44.018;10.144;2022-12-29T03:27:49;102249.69;;;13.15;91.15
75886;BME280;64561;44.018;10.144;2022-12-29T03:30:19;102254.88;;;13.16;90.75
75886;BME280;64561;44.018;10.144;2022-12-29T03:32:52;102246.44;;;13.20;90.45
75886;BME280;64561;44.018;10.144;2022-12-29T03:35:25;102236.38;;;13.25;90.05
75886;BME280;64561;44.018;10.144;2022-12-29T03:40:33;102232.16;;;13.27;89.25
75886;BME280;64561;44.018;10.144;2022-12-29T03:43:02;102224.47;;;13.27;88.93
75886;BME280;64561;44.018;10.144;2022-12-29T03:45:31;102223.56;;;13.26;88.90
75886;BME280;64561;44.018;10.144;2022-12-29T03:47:59;102226.81;;;13.22;89.13
75886;BME280;64561;44.018;10.144;2022-12-29T03:50:27;102222.69;;;13.26;89.06
75886;BME280;64561;44.018;10.144;2022-12-29T03:52:54;102218.41;;;13.26;89.34
75886;BME280;64561;44.018;10.144;2022-12-29T03:55:22;102232.63;;;13.41;88.78
75886;BME280;64561;44.018;10.144;2022-12-29T03:57:49;102228.25;;;13.38;88.88
75886;BME280;64561;44.018;10.144;2022-12-29T04:00:22;102227.03;;;13.27;89.24
75886;BME280;64561;44.018;10.144;2022-12-29T04:02:50;102218.41;;;13.26;89.65
75886;BME280;64561;44.018;10.144;2022-12-29T04:05:20;102222.75;;;13.27;89.49
75886;BME280;64561;44.018;10.144;2022-12-29T04:07:49;102225.25;;;13.26;89.21
75886;BME280;64561;44.018;10.144;2022-12-29T04:10:17;102220.13;;;13.26;89.16
75886;BME280;64561;44.018;10.144;2022-12-29T04:12:52;102229.63;;;13.29;89.22
75886;BME280;64561;44.018;10.144;2022-12-29T04:15:31;102224.47;;;13.27;89.18
75886;BME280;64561;44.018;10.144;2022-12-29T04:17:58;102225.31;;;13.27;89.42
75886;BME280;64561;44.018;10.144;2022-12-29T04:20:27;102221.88;;;13.27;89.52
75886;BME280;64561;44.018;10.144;2022-12-29T04:23:13;102228.66;;;13.25;89.41
75886;BME280;64561;44.018;10.144;2022-12-29T04:25:40;102227.81;;;13.26;89.43
75886;BME280;64561;44.018;10.144;2022-12-29T04:28:08;102232.09;;;13.25;89.46
75886;BME280;64561;44.018;10.144;2022-12-29T04:30:49;102232.97;;;13.26;89.37
75886;BME280;64561;44.018;10.144;2022-12-29T04:33:21;102227.81;;;13.26;89.31
75886;BME280;64561;44.018;10.144;2022-12-29T04:35:48;102219.25;;;13.25;89.26
75886;BME280;64561;44.018;10.144;2022-12-29T04:38:16;102206.22;;;13.21;89.05
75886;BME280;64561;44.018;10.144;2022-12-29T04:40:45;102213.84;;;13.19;89.21
75886;BME280;64561;44.018;10.144;2022-12-29T04:43:14;102222.63;;;13.24;89.07
75886;BME280;64561;44.018;10.144;2022-12-29T04:46:19;102215.59;;;13.20;89.11
75886;BME280;64561;44.018;10.144;2022-12-29T04:48:51;102216.22;;;13.13;89.17
75886;BME280;64561;44.018;10.144;2022-12-29T04:51:34;102216.94;;;13.09;89.47
75886;BME280;64561;44.018;10.144;2022-12-29T04:54:01;102215.28;;;13.11;89.58
75886;BME280;64561;44.018;10.144;2022-12-29T04:56:30;102204.19;;;13.12;89.57
75886;BME280;64561;44.018;10.144;2022-12-29T04:58:57;102208.50;;;13.13;88.99
75886;BME280;64561;44.018;10.144;2022-12-29T05:01:24;102212.91;;;13.17;89.13
75886;BME280;64561;44.018;10.144;2022-12-29T05:03:51;102205.91;;;13.12;89.35
75886;BME280;64561;44.018;10.144;2022-12-29T05:06:18;102216.38;;;13.18;89.25
75886;BME280;64561;44.018;10.144;2022-12-29T05:08:45;102208.72;;;13.19;89.09
75886;BME280;64561;44.018;10.144;2022-12-29T05:11:12;102200.91;;;13.16;88.91
75886;BME280;64561;44.018;10.144;2022-12-29T05:13:39;102210.41;;;13.19;88.81
75886;BME280;64561;44.018;10.144;2022-12-29T05:16:07;102212.88;;;13.16;89.07
75886;BME280;64561;44.018;10.144;2022-12-29T05:18:34;102212.06;;;13.17;88.89
75886;BME280;64561;44.018;10.144;2022-12-29T05:21:02;102213.75;;;13.16;89.06
75886;BME280;64561;44.018;10.144;2022-12-29T05:23:29;102218.88;;;13.16;88.85
75886;BME280;64561;44.018;10.144;2022-12-29T05:26:00;102214.59;;;13.15;89.06
75886;BME280;64561;44.018;10.144;2022-12-29T05:28:47;102214.63;;;13.17;89.06
75886;BME280;64561;44.018;10.144;2022-12-29T05:31:18;102213.00;;;13.19;89.08
75886;BME280;64561;44.018;10.144;2022-12-29T05:33:46;102220.84;;;13.23;89.19
75886;BME280;64561;44.018;10.144;2022-12-29T05:36:13;102219.09;;;13.22;89.13
75886;BME280;64561;44.018;10.144;2022-12-29T05:38:48;102221.00;;;13.26;89.18
75886;BME280;64561;44.018;10.144;2022-12-29T05:41:17;102221.88;;;13.27;89.38
75886;BME280;64561;44.018;10.144;2022-12-29T05:44:03;102217.63;;;13.27;89.27
75886;BME280;64561;44.018;10.144;2022-12-29T05:46:53;102215.84;;;13.26;89.75
75886;BME280;64561;44.018;10.144;2022-12-29T05:49:37;102227.13;;;13.30;89.29
75886;BME280;64561;44.018;10.144;2022-12-29T05:52:17;102222.91;;;13.32;89.02
75886;BME280;64561;44.018;10.144;2022-12-29T05:54:44;102215.09;;;13.29;89.16
75886;BME280;64561;44.018;10.144;2022-12-29T05:57:15;102215.09;;;13.29;89.29
75886;BME280;64561;44.018;10.144;2022-12-29T05:59:46;102210.81;;;13.30;89.42
75886;BME280;64561;44.018;10.144;2022-12-29T06:02:14;102222.97;;;13.34;89.62
75886;BME280;64561;44.018;10.144;2022-12-29T06:04:41;102222.03;;;13.32;89.66
75886;BME280;64561;44.018;10.144;2022-12-29T06:07:08;102222.97;;;13.34;90.00
75886;BME280;64561;44.018;10.144;2022-12-29T06:09:41;102226.47;;;13.36;90.04
75886;BME280;64561;44.018;10.144;2022-12-29T06:12:09;102222.22;;;13.36;90.29
75886;BME280;64561;44.018;10.144;2022-12-29T06:14:38;102230.94;;;13.41;90.69
75886;BME280;64561;44.018;10.144;2022-12-29T06:17:05;102233.63;;;13.44;90.38
75886;BME280;64561;44.018;10.144;2022-12-29T06:19:33;102231.88;;;13.43;90.80
75886;BME280;64561;44.018;10.144;2022-12-29T06:22:03;102231.16;;;13.47;90.71
75886;BME280;64561;44.018;10.144;2022-12-29T06:24:32;102227.88;;;13.52;90.63
75886;BME280;64561;44.018;10.144;2022-12-29T06:26:59;102234.72;;;13.51;90.62
75886;BME280;64561;44.018;10.144;2022-12-29T06:29:26;102232.16;;;13.51;90.56
75886;BME280;64561;44.018;10.144;2022-12-29T06:31:56;102222.53;;;13.45;90.58
75886;BME280;64561;44.018;10.144;2022-12-29T06:34:25;102237.19;;;13.48;90.42
75886;BME280;64561;44.018;10.144;2022-12-29T06:36:52;102242.44;;;13.51;90.60
75886;BME280;64561;44.018;10.144;2022-12-29T06:39:19;102243.25;;;13.50;90.42
75886;BME280;64561;44.018;10.144;2022-12-29T06:42:00;102244.13;;;13.50;90.78
75886;BME280;64561;44.018;10.144;2022-12-29T06:44:50;102252.88;;;13.56;90.50
75886;BME280;64561;44.018;10.144;2022-12-29T06:47:17;102252.88;;;13.56;90.51
75886;BME280;64561;44.018;10.144;2022-12-29T06:49:43;102249.53;;;13.58;90.53
75886;BME280;64561;44.018;10.144;2022-12-29T06:52:10;102252.16;;;13.60;90.37
75886;BME280;64561;44.018;10.144;2022-12-29T06:54:39;102249.53;;;13.58;90.44
75886;BME280;64561;44.018;10.144;2022-12-29T06:57:06;102253.03;;;13.60;90.40
75886;BME280;64561;44.018;10.144;2022-12-29T06:59:32;102249.53;;;13.58;90.64
75886;BME280;64561;44.018;10.144;2022-12-29T07:01:59;102250.47;;;13.60;90.27
75886;BME280;64561;44.018;10.144;2022-12-29T07:04:29;102253.03;;;13.60;90.28
75886;BME280;64561;44.018;10.144;2022-12-29T07:06:55;102251.28;;;13.59;90.32
75886;BME280;64561;44.018;10.144;2022-12-29T07:09:22;102247.91;;;13.60;90.27
75886;BME280;64561;44.018;10.144;2022-12-29T07:11:49;102250.47;;;13.60;90.27
75886;BME280;64561;44.018;10.144;2022-12-29T07:14:16;102249.53;;;13.58;90.16
75886;BME280;64561;44.018;10.144;2022-12-29T07:16:43;102254.72;;;13.60;90.03
75886;BME280;64561;44.018;10.144;2022-12-29T07:19:10;102262.41;;;13.58;90.23
75886;BME280;64561;44.018;10.144;2022-12-29T07:21:37;102263.38;;;13.62;90.17
75886;BME280;64561;44.018;10.144;2022-12-29T07:24:04;102260.75;;;13.60;89.97
75886;BME280;64561;44.018;10.144;2022-12-29T07:26:31;102269.34;;;13.61;90.12
75886;BME280;64561;44.018;10.144;2022-12-29T07:29:03;102270.22;;;13.61;90.07
75886;BME280;64561;44.018;10.144;2022-12-29T07:31:30;102271.06;;;13.60;90.33
75886;BME280;64561;44.018;10.144;2022-12-29T07:33:57;102274.50;;;13.61;90.12
75886;BME280;64561;44.018;10.144;2022-12-29T07:36:24;102261.53;;;13.58;90.36
75886;BME280;64561;44.018;10.144;2022-12-29T07:38:59;102270.03;;;13.57;90.32
75886;BME280;64561;44.018;10.144;2022-12-29T07:41:26;102271.09;;;13.62;90.37
75886;BME280;64561;44.018;10.144;2022-12-29T07:43:55;102275.38;;;13.61;90.30
75886;BME280;64561;44.018;10.144;2022-12-29T07:46:31;102276.22;;;13.62;90.21
75886;BME280;64561;44.018;10.144;2022-12-29T07:49:18;102283.91;;;13.60;90.08
75886;BME280;64561;44.018;10.144;2022-12-29T07:51:44;102276.22;;;13.62;89.85
75886;BME280;64561;44.018;10.144;2022-12-29T07:54:11;102283.16;;;13.63;89.39
75886;BME280;64561;44.018;10.144;2022-12-29T07:56:39;102284.88;;;13.64;89.28
75886;BME280;64561;44.018;10.144;2022-12-29T07:59:06;102294.31;;;13.63;88.94
75886;BME280;64561;44.018;10.144;2022-12-29T08:01:33;102291.63;;;13.60;89.02
75886;BME280;64561;44.018;10.144;2022-12-29T08:04:00;102296.66;;;13.57;89.41
75886;BME280;64561;44.018;10.144;2022-12-29T08:06:27;102296.56;;;13.54;89.49
75886;BME280;64561;44.018;10.144;2022-12-29T08:08:55;102287.06;;;13.53;89.46
75886;BME280;64561;44.018;10.144;2022-12-29T08:11:23;102295.72;;;13.55;89.41
75886;BME280;64561;44.018;10.144;2022-12-29T08:13:50;102294.09;;;13.57;89.28
75886;BME280;64561;44.018;10.144;2022-12-29T08:16:17;102301.75;;;13.56;89.30
75886;BME280;64561;44.018;10.144;2022-12-29T08:18:44;102304.41;;;13.59;88.97
75886;BME280;64561;44.018;10.144;2022-12-29T08:21:10;102301.09;;;13.61;88.60
75886;BME280;64561;44.018;10.144;2022-12-29T08:23:37;102307.75;;;13.56;88.51
75886;BME280;64561;44.018;10.144;2022-12-29T08:26:05;102313.63;;;13.52;88.78
75886;BME280;64561;44.018;10.144;2022-12-29T08:28:33;102313.66;;;13.54;88.87
75886;BME280;64561;44.018;10.144;2022-12-29T08:31:01;102311.16;;;13.55;89.06
75886;BME280;64561;44.018;10.144;2022-12-29T08:33:29;102320.72;;;13.59;88.83
75886;BME280;64561;44.018;10.144;2022-12-29T08:36:04;102321.47;;;13.57;88.93
75886;BME280;64561;44.018;10.144;2022-12-29T08:38:32;102325.66;;;13.53;89.14
75886;BME280;64561;44.018;10.144;2022-12-29T08:40:59;102324.84;;;13.54;89.15
75886;BME280;64561;44.018;10.144;2022-12-29T08:43:28;102320.59;;;13.56;88.87
75886;BME280;64561;44.018;10.144;2022-12-29T08:45:58;102333.47;;;13.56;88.89
75886;BME280;64561;44.018;10.144;2022-12-29T08:48:52;102302.25;;;13.45;89.03
75886;BME280;64561;44.018;10.144;2022-12-29T08:51:19;102325.06;;;13.60;88.68
75886;BME280;64561;44.018;10.144;2022-12-29T08:53:51;102320.91;;;13.64;88.76
75886;BME280;64561;44.018;10.144;2022-12-29T08:56:19;102317.38;;;13.62;88.68
75886;BME280;64561;44.018;10.144;2022-12-29T08:58:51;102315.66;;;13.61;88.37
75886;BME280;64561;44.018;10.144;2022-12-29T09:01:20;102330.31;;;13.63;88.46
75886;BME280;64561;44.018;10.144;2022-12-29T09:03:48;102326.72;;;13.60;88.62
75886;BME280;64561;44.018;10.144;2022-12-29T09:06:34;102333.66;;;13.61;88.60
75886;BME280;64561;44.018;10.144;2022-12-29T09:09:06;102331.94;;;13.61;88.09
75886;BME280;64561;44.018;10.144;2022-12-29T09:11:33;102324.31;;;13.63;88.41
75886;BME280;64561;44.018;10.144;2022-12-29T09:14:00;102335.50;;;13.65;88.11
75886;BME280;64561;44.018;10.144;2022-12-29T09:16:26;102338.03;;;13.63;88.46
75886;BME280;64561;44.018;10.144;2022-12-29T09:18:53;102339.66;;;13.61;88.08
75886;BME280;64561;44.018;10.144;2022-12-29T09:21:20;102332.06;;;13.64;87.93
75886;BME280;64561;44.018;10.144;2022-12-29T09:23:48;102344.31;;;13.71;87.44
75886;BME280;64561;44.018;10.144;2022-12-29T09:26:15;102344.19;;;13.68;88.20
75886;BME280;64561;44.018;10.144;2022-12-29T09:28:42;102347.72;;;13.70;88.19
75886;BME280;64561;44.018;10.144;2022-12-29T09:31:11;102347.81;;;13.73;88.52
75886;BME280;64561;44.018;10.144;2022-12-29T09:33:38;102341.84;;;13.75;88.25
75886;BME280;64561;44.018;10.144;2022-12-29T09:36:05;102342.88;;;13.80;88.52
75886;BME280;64561;44.018;10.144;2022-12-29T09:38:36;102339.59;;;13.84;88.05
75886;BME280;64561;44.018;10.144;2022-12-29T09:41:24;102344.69;;;13.82;88.39
75886;BME280;64561;44.018;10.144;2022-12-29T09:46:49;102337.75;;;13.80;88.04
75886;BME280;64561;44.018;10.144;2022-12-29T09:51:48;102338.13;;;13.90;87.36
75886;BME280;64561;44.018;10.144;2022-12-29T09:57:46;102336.63;;;13.97;87.13
75886;BME280;64561;44.018;10.144;2022-12-29T10:00:23;102340.19;;;14.01;87.21
75886;BME280;64561;44.018;10.144;2022-12-29T10:02:58;102335.09;;;14.02;87.42
75886;BME280;64561;44.018;10.144;2022-12-29T10:05:31;102331.69;;;14.03;87.12
75886;BME280;64561;44.018;10.144;2022-12-29T10:13:41;102326.69;;;14.08;85.68
75886;BME280;64561;44.018;10.144;2022-12-29T10:16:16;102320.75;;;14.09;85.32
75886;BME280;64561;44.018;10.144;2022-12-29T10:22:05;102317.31;;;14.10;85.01
75886;BME280;64561;44.018;10.144;2022-12-29T10:24:37;102318.16;;;14.09;85.50
75886;BME280;64561;44.018;10.144;2022-12-29T10:27:10;102319.13;;;14.12;85.74
75886;BME280;64561;44.018;10.144;2022-12-29T10:29:58;102310.75;;;14.18;85.49
75886;BME280;64561;44.018;10.144;2022-12-29T10:35:09;102296.44;;;14.26;84.95
75886;BME280;64561;44.018;10.144;2022-12-29T10:40:40;102292.66;;;14.44;83.40
75886;BME280;64561;44.018;10.144;2022-12-29T10:43:37;102286.97;;;14.52;84.88
75886;BME280;64561;44.018;10.144;2022-12-29T10:46:18;102282.53;;;14.75;83.17
75886;BME280;64561;44.018;10.144;2022-12-29T10:48:46;102283.56;;;14.80;81.64
75886;BME280;64561;44.018;10.144;2022-12-29T10:51:22;102275.75;;;14.77;81.14
75886;BME280;64561;44.018;10.144;2022-12-29T10:56:42;102279.09;;;14.75;81.56
75886;BME280;64561;44.018;10.144;2022-12-29T10:59:21;102280.63;;;14.68;81.73
75886;BME280;64561;44.018;10.144;2022-12-29T11:07:37;102264.72;;;14.54;82.80
75886;BME280;64561;44.018;10.144;2022-12-29T11:13:00;102267.09;;;14.50;82.83
75886;BME280;64561;44.018;10.144;2022-12-29T11:15:39;102260.22;;;14.49;83.12
75886;BME280;64561;44.018;10.144;2022-12-29T11:18:19;102265.50;;;14.52;82.50
75886;BME280;64561;44.018;10.144;2022-12-29T11:20:53;102258.56;;;14.51;82.42
75886;BME280;64561;44.018;10.144;2022-12-29T11:23:39;102270.66;;;14.52;81.83
75886;BME280;64561;44.018;10.144;2022-12-29T11:26:25;102264.50;;;14.48;82.71
75886;BME280;64561;44.018;10.144;2022-12-29T11:29:23;102263.78;;;14.52;83.25
75886;BME280;64561;44.018;10.144;2022-12-29T11:31:58;102268.81;;;14.49;82.24
75886;BME280;64561;44.018;10.144;2022-12-29T11:34:35;102256.00;;;14.51;82.87
75886;BME280;64561;44.018;10.144;2022-12-29T11:37:13;102247.31;;;14.47;83.56
75886;BME280;64561;44.018;10.144;2022-12-29T11:42:23;102250.78;;;14.49;82.92
75886;BME280;64561;44.018;10.144;2022-12-29T11:45:24;102245.53;;;14.46;83.43
75886;BME280;64561;44.018;10.144;2022-12-29T11:51:53;102235.22;;;14.46;84.04
75886;BME280;64561;44.018;10.144;2022-12-29T11:54:23;102232.72;;;14.48;83.93
75886;BME280;64561;44.018;10.144;2022-12-29T11:56:54;102229.31;;;14.49;84.10
75886;BME280;64561;44.018;10.144;2022-12-29T12:01:54;102220.75;;;14.50;84.21
75886;BME280;64561;44.018;10.144;2022-12-29T12:04:28;102207.06;;;14.51;84.32
75886;BME280;64561;44.018;10.144;2022-12-29T12:07:02;102205.41;;;14.53;83.87
75886;BME280;64561;44.018;10.144;2022-12-29T12:09:35;102202.81;;;14.51;84.14
75886;BME280;64561;44.018;10.144;2022-12-29T12:12:08;102197.56;;;14.50;83.83
75886;BME280;64561;44.018;10.144;2022-12-29T12:14:48;102196.66;;;14.48;83.79
75886;BME280;64561;44.018;10.144;2022-12-29T12:17:45;102198.72;;;14.58;83.48
75886;BME280;64561;44.018;10.144;2022-12-29T12:20:26;102190.84;;;14.53;83.57
75886;BME280;64561;44.018;10.144;2022-12-29T12:25:55;102184.03;;;14.55;83.57
75886;BME280;64561;44.018;10.144;2022-12-29T12:28:54;102182.38;;;14.57;83.37
75886;BME280;64561;44.018;10.144;2022-12-29T12:31:57;102171.06;;;14.52;83.73
75886;BME280;64561;44.018;10.144;2022-12-29T12:34:39;102178.06;;;14.56;84.32
75886;BME280;64561;44.018;10.144;2022-12-29T12:40:06;102172.09;;;14.59;84.08
75886;BME280;64561;44.018;10.144;2022-12-29T12:42:47;102178.09;;;14.58;84.20
75886;BME280;64561;44.018;10.144;2022-12-29T12:45:31;102176.38;;;14.58;84.07
75886;BME280;64561;44.018;10.144;2022-12-29T12:53:45;102163.22;;;14.49;83.98
75886;BME280;64561;44.018;10.144;2022-12-29T12:56:43;102168.63;;;14.57;84.06
75886;BME280;64561;44.018;10.144;2022-12-29T13:02:08;102159.09;;;14.54;84.14
75886;BME280;64561;44.018;10.144;2022-12-29T13:04:59;102156.31;;;14.48;84.19
75886;BME280;64561;44.018;10.144;2022-12-29T13:16:25;102149.47;;;14.49;82.70
75886;BME280;64561;44.018;10.144;2022-12-29T13:19:00;102141.72;;;14.47;83.05
75886;BME280;64561;44.018;10.144;2022-12-29T13:21:50;102144.38;;;14.50;83.07
75886;BME280;64561;44.018;10.144;2022-12-29T13:27:32;102146.81;;;14.46;82.95
75886;BME280;64561;44.018;10.144;2022-12-29T13:30:18;102141.56;;;14.43;83.46
75886;BME280;64561;44.018;10.144;2022-12-29T13:38:17;102131.31;;;14.44;84.21
75886;BME280;64561;44.018;10.144;2022-12-29T13:40:45;102126.97;;;14.43;84.39
75886;BME280;64561;44.018;10.144;2022-12-29T13:43:16;102119.22;;;14.41;83.89
75886;BME280;64561;44.018;10.144;2022-12-29T13:45:45;102116.66;;;14.43;83.37
75886;BME280;64561;44.018;10.144;2022-12-29T13:48:21;102121.88;;;14.45;83.11
75886;BME280;64561;44.018;10.144;2022-12-29T13:50:55;102117.59;;;14.45;83.30
75886;BME280;64561;44.018;10.144;2022-12-29T13:53:33;102115.91;;;14.46;83.28
75886;BME280;64561;44.018;10.144;2022-12-29T13:56:16;102115.03;;;14.45;83.30
75886;BME280;64561;44.018;10.144;2022-12-29T14:01:34;102112.44;;;14.45;83.53
75886;BME280;64561;44.018;10.144;2022-12-29T14:04:12;102111.53;;;14.43;83.59
75886;BME280;64561;44.018;10.144;2022-12-29T14:06:39;102109.00;;;14.45;83.77
75886;BME280;64561;44.018;10.144;2022-12-29T14:09:36;102113.31;;;14.46;83.74
75886;BME280;64561;44.018;10.144;2022-12-29T14:12:28;102108.38;;;14.52;83.26
75886;BME280;64561;44.018;10.144;2022-12-29T14:17:42;102107.59;;;14.54;83.32
75886;BME280;64561;44.018;10.144;2022-12-29T14:20:21;102099.78;;;14.51;83.38
75886;BME280;64561;44.018;10.144;2022-12-29T14:23:14;102106.84;;;14.58;82.57
75886;BME280;64561;44.018;10.144;2022-12-29T14:28:54;102105.88;;;14.55;83.22
75886;BME280;64561;44.018;10.144;2022-12-29T14:36:34;102104.97;;;14.53;82.67
75886;BME280;64561;44.018;10.144;2022-12-29T14:39:02;102100.72;;;14.55;82.58
75886;BME280;64561;44.018;10.144;2022-12-29T14:41:35;102099.78;;;14.51;82.56
75886;BME280;64561;44.018;10.144;2022-12-29T14:46:54;102097.22;;;14.53;82.40
75886;BME280;64561;44.018;10.144;2022-12-29T14:49:27;102090.19;;;14.47;82.75
75886;BME280;64561;44.018;10.144;2022-12-29T14:52:13;102099.88;;;14.56;82.68
75886;BME280;64561;44.018;10.144;2022-12-29T14:54:50;102099.81;;;14.53;82.59
75886;BME280;64561;44.018;10.144;2022-12-29T14:57:33;102094.63;;;14.51;82.66
75886;BME280;64561;44.018;10.144;2022-12-29T15:00:29;102089.38;;;14.50;83.35
75886;BME280;64561;44.018;10.144;2022-12-29T15:03:12;102088.56;;;14.51;83.27
75886;BME280;64561;44.018;10.144;2022-12-29T15:08:26;102094.66;;;14.53;83.13
75886;BME280;64561;44.018;10.144;2022-12-29T15:11:00;102102.34;;;14.51;83.28
75886;BME280;64561;44.018;10.144;2022-12-29T15:13:41;102096.25;;;14.49;83.22
75886;BME280;64561;44.018;10.144;2022-12-29T15:16:33;102093.66;;;14.49;82.98
75886;BME280;64561;44.018;10.144;2022-12-29T15:19:02;102091.06;;;14.48;82.82